Flight Track Log - Related Links

Times and Time Zones

All times are in EDT time to prevent confusion due to time zone crossing. See the AWE1940 flight status page for this flight to view local times or setup timezone preferences in your user account.

Time Position Orientation Groundspeed Altitude Reporting Facility
EDT Latitude Longitude Course Direction KTS MPH feet Rate Location/Type
Tue 10:53:13 PM 35.1928 -80.9356 72° East 158 182 1,800  Level Atlanta Center
Tue 10:54:20 PM 35.1381 -80.9147 163° South 219 252 3,900 10,112 Climbing Atlanta Center
Tue 10:56:00 PM 35.2700 -80.5167 30° Northeast  Level FlightAware Approximate
Tue 10:56:30 PM 35.1569 -80.7542 82° East 284 327 35,000  Level Atlanta Center
Tue 10:57:00 PM 35.3468 -80.4158 72° East  Level FlightAware Approximate
Tue 10:57:30 PM 35.1981 -80.6558 63° Northeast 303 349 11,300  Level Atlanta Center
Tue 10:58:00 PM 35.3861 -80.2665 72° East  Level FlightAware Approximate
Tue 10:58:30 PM 35.2494 -80.5494 59° Northeast 336 387 13,800  Level Atlanta Center
Tue 10:59:30 PM 35.3003 -80.4353 61° Northeast 366 421 17,100 2,517 Climbing Atlanta Center
Tue 11:01:24 PM 35.4031 -80.2169 60° Northeast 398 458 21,100 2,138 Climbing Washington Center
Tue 11:02:24 PM 35.4500 -80.0822 67° East 411 473 23,300 1,950 Climbing Washington Center
Tue 11:03:24 PM 35.4864 -79.9414 72° East 418 481 25,000 1,700 Climbing Washington Center
Tue 11:04:24 PM 35.5211 -79.7925 74° East 433 498 26,700 1,068 Climbing Washington Center
Tue 11:05:22 PM 35.5575 -79.6414 73° East 449 517 27,100 900 Climbing Washington Center
Tue 11:06:24 PM 35.6003 -79.4850 71° East 470 541 28,500 1,636 Climbing Washington Center
Tue 11:07:23 PM 35.6508 -79.3419 66° East 470 541 30,400 1,850 Climbing Washington Center
Tue 11:08:24 PM 35.7094 -79.2014 63° Northeast 460 529 32,200 1,311 Climbing Washington Center
Tue 11:09:22 PM 35.7678 -79.0581 63° Northeast 460 529 33,000 559 Climbing Washington Center
Tue 11:10:22 PM 35.8242 -78.9147 64° Northeast 460 529 33,300 800 Climbing Washington Center
Tue 11:11:22 PM 35.8844 -78.7711 63° Northeast 460 529 34,600 843 Climbing Washington Center
Tue 11:12:23 PM 35.9483 -78.6350 60° Northeast 460 529 35,000 198 Climbing Washington Center
Tue 11:13:23 PM 36.0164 -78.4989 58° Northeast 460 529 35,000  Level Washington Center
Tue 11:14:24 PM 36.0800 -78.3675 59° Northeast 453 521 35,000  Level Washington Center
Tue 11:15:22 PM 36.1458 -78.2336 59° Northeast 448 516 35,000  Level Washington Center
Tue 11:16:24 PM 36.2111 -78.0994 59° Northeast 448 516 35,000  Level Washington Center
Tue 11:17:21 PM 36.2767 -77.9650 59° Northeast 448 516 35,000  Level Washington Center
Tue 11:18:22 PM 36.3417 -77.8328 59° Northeast 443 510 35,000  Level Washington Center
Tue 11:19:23 PM 36.4047 -77.6978 60° Northeast 443 510 35,000  Level Washington Center
Tue 11:20:23 PM 36.4633 -77.5650 61° Northeast 437 503 35,000  Level Washington Center
Tue 11:21:24 PM 36.5281 -77.4297 59° Northeast 437 503 35,000  Level Washington Center
Tue 11:22:22 PM 36.5925 -77.2942 59° Northeast 442 509 35,000  Level Washington Center
Tue 11:23:23 PM 36.6528 -77.1556 62° Northeast 442 509 35,000  Level Washington Center
Tue 11:24:23 PM 36.7172 -77.0197 59° Northeast 442 509 35,000  Level Washington Center
Tue 11:25:22 PM 36.8058 -76.9306 39° Northeast 442 509 35,000  Level Washington Center
Tue 11:26:22 PM 36.9047 -76.8386 37° Northeast 442 509 35,000  Level Washington Center
Tue 11:27:23 PM 37.0081 -76.7467 35° Northeast 448 516 35,000  Level Washington Center
Tue 11:28:24 PM 37.1089 -76.6544 36° Northeast 448 516 35,000  Level Washington Center
Tue 11:29:24 PM 37.2097 -76.5644 35° Northeast 448 516 35,000  Level Washington Center
Tue 11:30:24 PM 37.3086 -76.4667 38° Northeast 448 516 35,000  Level Washington Center
Tue 11:31:24 PM 37.4114 -76.3736 36° Northeast 448 516 35,000  Level Washington Center
Tue 11:32:24 PM 37.5225 -76.2725 36° Northeast 455 524 35,000  Level Washington Center
Tue 11:33:22 PM 37.6233 -76.1817 35° Northeast 455 524 35,000  Level Washington Center
Tue 11:34:23 PM 37.7278 -76.0933 34° Northeast 455 524 35,000  Level Washington Center
Tue 11:35:21 PM 37.8264 -75.9939 39° Northeast 455 524 35,000  Level Washington Center
Tue 11:36:23 PM 37.9289 -75.8997 36° Northeast 455 524 35,000  Level Washington Center
Tue 11:37:23 PM 38.0353 -75.8211 30° Northeast 455 524 35,000  Level Washington Center
Tue 11:38:22 PM 38.1417 -75.7397 31° Northeast 444 511 35,000  Level Washington Center
Tue 11:39:23 PM 38.2481 -75.6606 30° Northeast 444 511 35,000  Level Washington Center
Tue 11:40:22 PM 38.3461 -75.5969 27° Northeast 439 505 35,000  Level Washington Center
Tue 11:41:23 PM 38.4525 -75.5200 30° Northeast 439 505 35,000  Level Washington Center
Tue 11:42:22 PM 38.5567 -75.4350 33° Northeast 439 505 35,000  Level Washington Center
Tue 11:43:23 PM 38.6669 -75.3603 28° Northeast 434 499 35,000  Level Washington Center
Tue 11:44:23 PM 38.7711 -75.2775 32° Northeast 439 505 35,000  Level Washington Center
Tue 11:45:24 PM 38.8772 -75.2022 29° Northeast 439 505 35,000 -50 Level Washington Center
Tue 11:46:22 PM 38.9833 -75.1269 29° Northeast 439 505 34,900  Descending Washington Center
Tue 11:47:22 PM 39.0869 -75.0408 33° Northeast 439 505 35,000 50 Climbing Washington Center
Tue 11:48:23 PM 39.1950 -74.9622 29° Northeast 444 511 35,000 -50 Level Washington Center
Tue 11:49:22 PM 39.3008 -74.8836 30° Northeast 439 505 34,900 -50 Descending Washington Center
Tue 11:50:22 PM 39.4067 -74.7992 32° Northeast 439 505 34,900 -486 Level Washington Center
Tue 11:52:52 PM 39.6786 -74.5875 31° Northeast 448 516 33,200 -857 Descending New York Center
Tue 11:53:52 PM 39.7897 -74.5072 29° Northeast 443 510 31,900 -1,100 Descending New York Center
Tue 11:54:52 PM 39.9008 -74.4239 30° Northeast 453 521 31,000 -450 Descending New York Center
Tue 11:55:52 PM 40.0097 -74.3347 32° Northeast 458 527 31,000  Level New York Center
Tue 11:56:52 PM 40.1206 -74.2536 29° Northeast 458 527 31,000  Level New York Center
Tue 11:57:53 PM 40.2275 -74.1636 33° Northeast 458 527 31,000  Level New York Center
Tue 11:58:51 PM 40.3342 -74.0736 33° Northeast 458 527 31,000  Level New York Center
Tue 11:59:52 PM 40.4411 -73.9781 34° Northeast 458 527 31,000 -496 Level New York Center
Wed 12:00:52 AM 40.5497 -73.8847 33° Northeast 458 527 30,000 -1,245 Descending New York Center
Wed 12:02:31 AM 40.7342 -73.7300 32° Northeast 490 564 27,700 -2,075 Descending Boston Center
Wed 12:03:31 AM 40.8289 -73.6386 36° Northeast 484 557 24,500 -1,850 Descending Boston Center
Wed 12:04:31 AM 40.9461 -73.5806 21° North 472 543 24,000 -300 Descending Boston Center
Wed 12:05:31 AM 41.0856 -73.6022 353° North 429 494 23,900 -500 Descending Boston Center
Wed 12:06:31 AM 41.2083 -73.6183 354° North 429 494 23,000 -850 Descending Boston Center
Wed 12:07:31 AM 41.3042 -73.6283 356° North 429 494 22,200 -1,300 Descending Boston Center
Wed 12:08:31 AM 41.4478 -73.6447 355° North 429 494 20,400 -1,250 Descending Boston Center
Wed 12:09:31 AM 41.5622 -73.6636 353° North 422 486 19,700 -1,200 Descending Boston Center
Wed 12:10:31 AM 41.6664 -73.6739 356° North 417 480 18,000 -1,909 Descending Boston Center
Wed 12:11:43 AM 41.8078 -73.6878 356° North 401 461 15,500 -2,091 Descending Boston Center
Wed 12:12:43 AM 41.9097 -73.7039 353° North 379 436 13,400 -2,000 Descending Boston Center
Wed 12:13:43 AM 42.0119 -73.7169 355° North 366 421 11,500 -1,169 Descending Boston Center
Wed 12:14:41 AM 42.1097 -73.7275 355° North 351 404 11,100 -254 Descending Boston Center
Wed 12:15:41 AM 42.2011 -73.7378 355° North 334 384 11,000 -49 Descending Boston Center
Wed 12:16:43 AM 42.2803 -73.7450 356° North 303 349 11,000 -1,190 Level Boston Center
Wed 12:17:37 AM 42.3533 -73.7436 North 279 321 8,700 -2,300 Descending Boston Center
Wed 12:18:43 AM 42.4367 -73.7342 North 281 323 6,400 -2,132 Descending Boston Center
Wed 12:19:38 AM 42.5056 -73.7300 North 268 308 4,400 -1,759 Descending Boston Center
Wed 12:20:39 AM 42.5764 -73.7258 North 264 304 3,000 -694 Descending Boston Center
Wed 12:21:39 AM 42.6494 -73.7244 North 252 290 3,000  Level Boston Center
Wed 12:22:40 AM 42.7225 -73.7231 North 239 275 3,000  Level Boston Center
Wed 12:23:40 AM 42.7831 -73.7186 North 210 242 3,000  Level Boston Center
Wed 12:24:41 AM 42.8433 -73.7200 359° North 217 250 3,000 -443 Level Boston Center
Wed 12:25:42 AM 42.9039 -73.7156 North 219 252 2,100 -496 Descending Boston Center
Wed 12:26:42 AM 42.9219 -73.7669 296° West 170 196 2,000 -50 Descending Boston Center
Wed 12:27:43 AM 42.8758 -73.7972 206° Southwest 172 198 2,000 -50 Level Boston Center
Wed 12:28:43 AM 42.8422 -73.8106 196° South 113 130 1,900 -545 Descending Boston Center
Wed 12:29:44 AM 42.7922 -73.8094 179° South 131 151 900 -984 Descending Boston Center

Login

Don't have an account? Register now (free) for customized features, flight alerts, and more!